sensor_id;sensor_type;location;lat;lon;timestamp;pressure;altitude;pressure_sealevel;temperature;humidity
8543;BME280;4309;42.658;23.380;2023-01-27T00:00:25;93919.28;;;0.60;99.50
8543;BME280;4309;42.658;23.380;2023-01-27T00:00:56;93910.25;;;0.49;99.41
8543;BME280;4309;42.658;23.380;2023-01-27T00:01:26;93917.63;;;0.52;99.84
8543;BME280;4309;42.658;23.380;2023-01-27T00:02:00;93916.91;;;0.58;99.13
8543;BME280;4309;42.658;23.380;2023-01-27T00:02:30;93914.16;;;0.60;99.86
8543;BME280;4309;42.658;23.380;2023-01-27T00:03:01;93912.28;;;0.54;99.90
8543;BME280;4309;42.658;23.380;2023-01-27T00:03:32;93912.91;;;0.56;99.15
8543;BME280;4309;42.658;23.380;2023-01-27T00:04:04;93916.63;;;0.68;98.80
8543;BME280;4309;42.658;23.380;2023-01-27T00:04:35;93908.31;;;0.66;98.92
8543;BME280;4309;42.658;23.380;2023-01-27T00:05:06;93912.72;;;0.72;99.10
8543;BME280;4309;42.658;23.380;2023-01-27T00:05:39;93911.56;;;0.74;99.38
8543;BME280;4309;42.658;23.380;2023-01-27T00:06:09;93917.34;;;0.76;98.71
8543;BME280;4309;42.658;23.380;2023-01-27T00:06:41;93915.94;;;0.74;99.13
8543;BME280;4309;42.658;23.380;2023-01-27T00:07:13;93910.69;;;0.67;98.40
8543;BME280;4309;42.658;23.380;2023-01-27T00:07:44;93913.47;;;0.66;98.73
8543;BME280;4309;42.658;23.380;2023-01-27T00:08:16;93910.69;;;0.67;99.39
8543;BME280;4309;42.658;23.380;2023-01-27T00:08:48;93916.00;;;0.80;98.35
8543;BME280;4309;42.658;23.380;2023-01-27T00:09:18;93912.09;;;0.70;98.93
8543;BME280;4309;42.658;23.380;2023-01-27T00:09:49;93906.97;;;0.70;98.75
8543;BME280;4309;42.658;23.380;2023-01-27T00:10:20;93905.91;;;0.64;98.05
8543;BME280;4309;42.658;23.380;2023-01-27T00:10:56;93909.91;;;0.67;99.39
8543;BME280;4309;42.658;23.380;2023-01-27T00:11:42;93907.94;;;0.69;99.32
8543;BME280;4309;42.658;23.380;2023-01-27T00:12:31;93905.19;;;0.70;98.50
8543;BME280;4309;42.658;23.380;2023-01-27T00:13:19;93903.66;;;0.76;99.27
8543;BME280;4309;42.658;23.380;2023-01-27T00:13:56;93902.00;;;0.83;98.87
8543;BME280;4309;42.658;23.380;2023-01-27T00:14:27;93899.34;;;0.76;99.02
8543;BME280;4309;42.658;23.380;2023-01-27T00:14:58;93904.47;;;0.76;98.89
8543;BME280;4309;42.658;23.380;2023-01-27T00:15:30;93908.03;;;0.75;99.21
8543;BME280;4309;42.658;23.380;2023-01-27T00:16:02;93904.22;;;0.71;99.04
8543;BME280;4309;42.658;23.380;2023-01-27T00:16:33;93901.19;;;0.68;99.09
8543;BME280;4309;42.658;23.380;2023-01-27T00:17:05;93897.47;;;0.70;98.95
8543;BME280;4309;42.658;23.380;2023-01-27T00:17:36;93904.22;;;0.71;99.38
8543;BME280;4309;42.658;23.380;2023-01-27T00:18:08;93902.25;;;0.73;99.64
8543;BME280;4309;42.658;23.380;2023-01-27T00:18:39;93908.44;;;0.79;99.09
8543;BME280;4309;42.658;23.380;2023-01-27T00:19:10;93904.13;;;0.65;99.15
8543;BME280;4309;42.658;23.380;2023-01-27T00:19:42;93904.31;;;0.63;99.62
8543;BME280;4309;42.658;23.380;2023-01-27T00:20:13;93904.94;;;0.65;99.31
8543;BME280;4309;42.658;23.380;2023-01-27T00:21:07;93905.19;;;0.85;98.83
8543;BME280;4309;42.658;23.380;2023-01-27T00:21:56;93890.88;;;0.82;99.15
8543;BME280;4309;42.658;23.380;2023-01-27T00:22:45;93895.00;;;0.77;99.66
8543;BME280;4309;42.658;23.380;2023-01-27T00:23:34;93886.81;;;0.88;99.37
8543;BME280;4309;42.658;23.380;2023-01-27T00:24:23;93882.06;;;0.91;99.22
8543;BME280;4309;42.658;23.380;2023-01-27T00:25:07;93884.13;;;0.96;98.78
8543;BME280;4309;42.658;23.380;2023-01-27T00:25:38;93878.53;;;0.92;98.88
8543;BME280;4309;42.658;23.380;2023-01-27T00:26:10;93879.09;;;0.88;98.11
8543;BME280;4309;42.658;23.380;2023-01-27T00:26:41;93879.59;;;0.83;98.10
8543;BME280;4309;42.658;23.380;2023-01-27T00:27:13;93881.59;;;0.81;98.76
8543;BME280;4309;42.658;23.380;2023-01-27T00:27:44;93874.47;;;0.83;98.42
8543;BME280;4309;42.658;23.380;2023-01-27T00:28:15;93880.34;;;0.77;98.12
8543;BME280;4309;42.658;23.380;2023-01-27T00:28:52;93879.56;;;0.77;98.69
8543;BME280;4309;42.658;23.380;2023-01-27T00:29:24;93882.72;;;0.79;99.06
8543;BME280;4309;42.658;23.380;2023-01-27T00:29:54;93883.72;;;0.78;99.39
8543;BME280;4309;42.658;23.380;2023-01-27T00:30:25;93875.72;;;0.87;98.78
8543;BME280;4309;42.658;23.380;2023-01-27T00:30:57;93878.09;;;0.89;99.12
8543;BME280;4309;42.658;23.380;2023-01-27T00:31:29;93880.22;;;0.85;99.02
8543;BME280;4309;42.658;23.380;2023-01-27T00:32:20;93881.03;;;0.86;99.39
8543;BME280;4309;42.658;23.380;2023-01-27T00:33:09;93879.47;;;0.85;98.94
8543;BME280;4309;42.658;23.380;2023-01-27T00:33:55;93886.56;;;0.83;98.58
8543;BME280;4309;42.658;23.380;2023-01-27T00:34:31;93888.75;;;0.86;99.17
8543;BME280;4309;42.658;23.380;2023-01-27T00:35:03;93886.00;;;0.87;98.94
8543;BME280;4309;42.658;23.380;2023-01-27T00:35:34;93884.69;;;0.77;98.58
8543;BME280;4309;42.658;23.380;2023-01-27T00:36:06;93882.06;;;0.70;99.56
8543;BME280;4309;42.658;23.380;2023-01-27T00:36:39;93881.16;;;0.63;99.40
8543;BME280;4309;42.658;23.380;2023-01-27T00:37:10;93892.25;;;0.64;99.69
8543;BME280;4309;42.658;23.380;2023-01-27T00:37:40;93892.44;;;0.62;99.00
8543;BME280;4309;42.658;23.380;2023-01-27T00:38:12;93882.50;;;0.59;99.06
8543;BME280;4309;42.658;23.380;2023-01-27T00:38:43;93881.19;;;0.49;100.00
8543;BME280;4309;42.658;23.380;2023-01-27T00:39:13;93887.09;;;0.64;99.51
8543;BME280;4309;42.658;23.380;2023-01-27T00:39:45;93880.09;;;0.72;100.00
8543;BME280;4309;42.658;23.380;2023-01-27T00:40:16;93886.19;;;0.86;100.00
8543;BME280;4309;42.658;23.380;2023-01-27T00:40:47;93884.47;;;0.93;99.34
8543;BME280;4309;42.658;23.380;2023-01-27T00:41:39;93881.19;;;0.99;99.68
8543;BME280;4309;42.658;23.380;2023-01-27T00:42:09;93884.38;;;1.01;98.86
8543;BME280;4309;42.658;23.380;2023-01-27T00:42:40;93886.16;;;1.00;99.50
8543;BME280;4309;42.658;23.380;2023-01-27T00:43:12;93885.16;;;1.01;98.02
8543;BME280;4309;42.658;23.380;2023-01-27T00:43:43;93882.97;;;0.98;98.61
8543;BME280;4309;42.658;23.380;2023-01-27T00:44:13;93886.72;;;0.96;98.28
8543;BME280;4309;42.658;23.380;2023-01-27T00:44:45;93889.91;;;0.83;98.92
8543;BME280;4309;42.658;23.380;2023-01-27T00:45:31;93884.06;;;0.89;99.01
8543;BME280;4309;42.658;23.380;2023-01-27T00:46:22;93887.88;;;0.79;98.78
8543;BME280;4309;42.658;23.380;2023-01-27T00:46:53;93888.94;;;0.84;99.43
8543;BME280;4309;42.658;23.380;2023-01-27T00:47:26;93895.78;;;0.77;98.36
8543;BME280;4309;42.658;23.380;2023-01-27T00:47:56;93892.84;;;0.80;98.23
8543;BME280;4309;42.658;23.380;2023-01-27T00:48:28;93887.63;;;0.74;99.53
8543;BME280;4309;42.658;23.380;2023-01-27T00:48:59;93894.34;;;0.89;99.24
8543;BME280;4309;42.658;23.380;2023-01-27T00:49:29;93888.41;;;0.89;99.59
8543;BME280;4309;42.658;23.380;2023-01-27T00:50:01;93884.94;;;0.82;99.54
8543;BME280;4309;42.658;23.380;2023-01-27T00:50:32;93890.78;;;0.90;98.25
8543;BME280;4309;42.658;23.380;2023-01-27T00:51:03;93894.34;;;0.89;99.00
8543;BME280;4309;42.658;23.380;2023-01-27T00:51:33;93892.56;;;0.90;99.26
8543;BME280;4309;42.658;23.380;2023-01-27T00:52:06;93904.00;;;0.87;98.28
8543;BME280;4309;42.658;23.380;2023-01-27T00:52:36;93899.84;;;0.86;99.27
8543;BME280;4309;42.658;23.380;2023-01-27T00:53:09;93903.50;;;0.77;98.26
8543;BME280;4309;42.658;23.380;2023-01-27T00:53:41;93900.31;;;0.75;99.13
8543;BME280;4309;42.658;23.380;2023-01-27T00:54:11;93894.28;;;0.68;99.36
8543;BME280;4309;42.658;23.380;2023-01-27T00:54:43;93895.69;;;0.71;99.31
8543;BME280;4309;42.658;23.380;2023-01-27T00:55:14;93892.16;;;0.57;99.05
8543;BME280;4309;42.658;23.380;2023-01-27T00:55:46;93900.16;;;0.62;98.91
8543;BME280;4309;42.658;23.380;2023-01-27T00:56:17;93899.59;;;0.67;99.49
8543;BME280;4309;42.658;23.380;2023-01-27T00:56:47;93889.59;;;0.72;99.76
8543;BME280;4309;42.658;23.380;2023-01-27T00:57:19;93896.66;;;0.84;98.81
8543;BME280;4309;42.658;23.380;2023-01-27T00:57:50;93886.19;;;0.86;99.76
8543;BME280;4309;42.658;23.380;2023-01-27T00:58:21;93899.22;;;0.84;98.46
8543;BME280;4309;42.658;23.380;2023-01-27T00:58:52;93892.47;;;0.83;99.24
8543;BME280;4309;42.658;23.380;2023-01-27T00:59:23;93889.38;;;0.88;98.49
8543;BME280;4309;42.658;23.380;2023-01-27T00:59:54;93900.16;;;0.98;99.15
8543;BME280;4309;42.658;23.380;2023-01-27T01:00:25;93888.56;;;1.02;97.53
8543;BME280;4309;42.658;23.380;2023-01-27T01:00:58;93893.50;;;1.03;97.10
8543;BME280;4309;42.658;23.380;2023-01-27T01:01:29;93890.69;;;0.98;96.76
8543;BME280;4309;42.658;23.380;2023-01-27T01:02:00;93894.25;;;0.97;96.65
8543;BME280;4309;42.658;23.380;2023-01-27T01:02:33;93890.09;;;0.82;97.54
8543;BME280;4309;42.658;23.380;2023-01-27T01:03:04;93896.47;;;0.86;96.57
8543;BME280;4309;42.658;23.380;2023-01-27T01:03:35;93891.06;;;0.81;97.17
8543;BME280;4309;42.658;23.380;2023-01-27T01:04:07;93891.50;;;0.84;97.27
8543;BME280;4309;42.658;23.380;2023-01-27T01:04:38;93894.72;;;0.86;98.16
8543;BME280;4309;42.658;23.380;2023-01-27T01:05:08;93882.38;;;0.82;97.75
8543;BME280;4309;42.658;23.380;2023-01-27T01:05:40;93882.53;;;0.80;97.94
8543;BME280;4309;42.658;23.380;2023-01-27T01:06:13;93888.06;;;0.77;98.02
8543;BME280;4309;42.658;23.380;2023-01-27T01:06:44;93882.72;;;0.79;98.09
8543;BME280;4309;42.658;23.380;2023-01-27T01:07:15;93885.94;;;0.81;98.42
8543;BME280;4309;42.658;23.380;2023-01-27T01:07:46;93891.06;;;0.81;97.65
8543;BME280;4309;42.658;23.380;2023-01-27T01:08:17;93880.25;;;0.71;97.26
8543;BME280;4309;42.658;23.380;2023-01-27T01:08:49;93888.59;;;0.73;97.04
8543;BME280;4309;42.658;23.380;2023-01-27T01:09:20;93885.56;;;0.69;98.17
8543;BME280;4309;42.658;23.380;2023-01-27T01:09:51;93881.53;;;0.60;97.75
8543;BME280;4309;42.658;23.380;2023-01-27T01:10:22;93880.72;;;0.60;98.45
8543;BME280;4309;42.658;23.380;2023-01-27T01:10:53;93875.69;;;0.52;97.74
8543;BME280;4309;42.658;23.380;2023-01-27T01:11:25;93879.13;;;0.59;98.40
8543;BME280;4309;42.658;23.380;2023-01-27T01:11:55;93884.91;;;0.61;98.45
8543;BME280;4309;42.658;23.380;2023-01-27T01:12:27;93879.47;;;0.56;98.98
8543;BME280;4309;42.658;23.380;2023-01-27T01:12:58;93881.25;;;0.55;99.06
8543;BME280;4309;42.658;23.380;2023-01-27T01:13:29;93888.59;;;0.58;98.64
8543;BME280;4309;42.658;23.380;2023-01-27T01:13:59;93874.53;;;0.54;98.69
8543;BME280;4309;42.658;23.380;2023-01-27T01:14:31;93878.09;;;0.53;99.69
8543;BME280;4309;42.658;23.380;2023-01-27T01:15:02;93885.06;;;0.59;98.90
8543;BME280;4309;42.658;23.380;2023-01-27T01:15:34;93880.56;;;0.61;98.91
8543;BME280;4309;42.658;23.380;2023-01-27T01:16:08;93878.94;;;0.60;99.02
8543;BME280;4309;42.658;23.380;2023-01-27T01:16:39;93881.16;;;0.63;99.51
8543;BME280;4309;42.658;23.380;2023-01-27T01:17:09;93882.78;;;0.64;99.63
8543;BME280;4309;42.658;23.380;2023-01-27T01:17:43;93880.19;;;0.64;99.47
8543;BME280;4309;42.658;23.380;2023-01-27T01:18:14;93879.22;;;0.65;99.58
8543;BME280;4309;42.658;23.380;2023-01-27T01:18:45;93882.78;;;0.64;99.43
8543;BME280;4309;42.658;23.380;2023-01-27T01:19:17;93884.91;;;0.61;99.48
8543;BME280;4309;42.658;23.380;2023-01-27T01:19:48;93881.78;;;0.65;100.00
8543;BME280;4309;42.658;23.380;2023-01-27T01:20:19;93884.72;;;0.62;100.00
8543;BME280;4309;42.658;23.380;2023-01-27T01:20:49;93884.72;;;0.62;100.00
8543;BME280;4309;42.658;23.380;2023-01-27T01:21:21;93881.69;;;0.59;100.00
8543;BME280;4309;42.658;23.380;2023-01-27T01:21:52;93887.28;;;0.62;100.00
8543;BME280;4309;42.658;23.380;2023-01-27T01:22:23;93886.22;;;0.57;100.00
8543;BME280;4309;42.658;23.380;2023-01-27T01:22:54;93877.63;;;0.50;100.00
8543;BME280;4309;42.658;23.380;2023-01-27T01:23:27;93889.16;;;0.54;100.00
8543;BME280;4309;42.658;23.380;2023-01-27T01:23:58;93884.09;;;0.60;100.00
8543;BME280;4309;42.658;23.380;2023-01-27T01:24:30;93881.97;;;0.64;100.00
8543;BME280;4309;42.658;23.380;2023-01-27T01:25:01;93890.72;;;0.69;100.00
8543;BME280;4309;42.658;23.380;2023-01-27T01:25:31;93884.53;;;0.64;100.00
8543;BME280;4309;42.658;23.380;2023-01-27T01:26:03;93881.25;;;0.70;100.00
8543;BME280;4309;42.658;23.380;2023-01-27T01:26:35;93885.66;;;0.76;100.00
8543;BME280;4309;42.658;23.380;2023-01-27T01:27:05;93880.16;;;0.79;100.00
8543;BME280;4309;42.658;23.380;2023-01-27T01:27:36;93879.56;;;0.77;100.00
8543;BME280;4309;42.658;23.380;2023-01-27T01:28:08;93882.06;;;0.70;99.55
8543;BME280;4309;42.658;23.380;2023-01-27T01:28:39;93888.59;;;0.73;100.00
8543;BME280;4309;42.658;23.380;2023-01-27T01:29:10;93869.09;;;0.78;99.96
8543;BME280;4309;42.658;23.380;2023-01-27T01:29:41;93875.44;;;0.82;98.98
8543;BME280;4309;42.658;23.380;2023-01-27T01:30:12;93871.84;;;0.77;100.00
8543;BME280;4309;42.658;23.380;2023-01-27T01:30:43;93862.94;;;0.79;99.03
8543;BME280;4309;42.658;23.380;2023-01-27T01:31:16;93870.50;;;0.81;100.00
8543;BME280;4309;42.658;23.380;2023-01-27T01:31:49;93876.44;;;0.81;99.13
8543;BME280;4309;42.658;23.380;2023-01-27T01:32:20;93879.59;;;0.83;99.37
8543;BME280;4309;42.658;23.380;2023-01-27T01:32:52;93876.94;;;0.91;99.33
8543;BME280;4309;42.658;23.380;2023-01-27T01:33:23;93884.13;;;0.96;98.37
8543;BME280;4309;42.658;23.380;2023-01-27T01:33:55;93883.94;;;0.97;98.93
8543;BME280;4309;42.658;23.380;2023-01-27T01:34:26;93879.59;;;0.98;98.37
8543;BME280;4309;42.658;23.380;2023-01-27T01:34:57;93883.41;;;1.02;99.15
8543;BME280;4309;42.658;23.380;2023-01-27T01:35:29;93875.59;;;0.95;97.97
8543;BME280;4309;42.658;23.380;2023-01-27T01:36:04;93888.66;;;0.94;97.78
8543;BME280;4309;42.658;23.380;2023-01-27T01:36:35;93893.53;;;0.89;97.79
8543;BME280;4309;42.658;23.380;2023-01-27T01:37:07;93901.44;;;0.87;98.89
8543;BME280;4309;42.658;23.380;2023-01-27T01:37:38;93892.31;;;0.85;98.43
8543;BME280;4309;42.658;23.380;2023-01-27T01:38:09;93894.63;;;0.80;99.03
8543;BME280;4309;42.658;23.380;2023-01-27T01:38:41;93897.22;;;0.80;98.89
8543;BME280;4309;42.658;23.380;2023-01-27T01:39:12;93893.28;;;0.84;98.72
8543;BME280;4309;42.658;23.380;2023-01-27T01:39:43;93901.44;;;0.87;99.39
8543;BME280;4309;42.658;23.380;2023-01-27T01:40:14;93904.19;;;0.86;98.81
8543;BME280;4309;42.658;23.380;2023-01-27T01:40:45;93907.56;;;0.86;98.18
8543;BME280;4309;42.658;23.380;2023-01-27T01:41:18;93903.38;;;0.85;99.13
8543;BME280;4309;42.658;23.380;2023-01-27T01:41:50;93901.63;;;0.86;98.25
8543;BME280;4309;42.658;23.380;2023-01-27T01:42:21;93908.16;;;0.88;98.01
8543;BME280;4309;42.658;23.380;2023-01-27T01:42:58;93901.81;;;0.84;97.96
8543;BME280;4309;42.658;23.380;2023-01-27T01:43:30;93907.22;;;0.89;98.96
8543;BME280;4309;42.658;23.380;2023-01-27T01:44:22;93906.50;;;0.81;98.97
8543;BME280;4309;42.658;23.380;2023-01-27T01:45:59;93902.44;;;0.57;98.21
8543;BME280;4309;42.658;23.380;2023-01-27T01:46:31;93912.56;;;0.59;98.46
8543;BME280;4309;42.658;23.380;2023-01-27T01:47:02;93896.09;;;0.53;98.70
8543;BME280;4309;42.658;23.380;2023-01-27T01:47:32;93898.56;;;0.61;99.00
8543;BME280;4309;42.658;23.380;2023-01-27T01:48:07;93902.19;;;0.67;99.78
8543;BME280;4309;42.658;23.380;2023-01-27T01:48:42;93905.75;;;0.66;98.69
8543;BME280;4309;42.658;23.380;2023-01-27T01:49:19;93895.28;;;0.67;98.91
8543;BME280;4309;42.658;23.380;2023-01-27T01:49:52;93898.03;;;0.66;98.96
8543;BME280;4309;42.658;23.380;2023-01-27T01:50:23;93886.31;;;0.63;99.62
8543;BME280;4309;42.658;23.380;2023-01-27T01:50:56;93898.81;;;0.66;99.49
8543;BME280;4309;42.658;23.380;2023-01-27T01:51:31;93887.56;;;0.67;99.64
8543;BME280;4309;42.658;23.380;2023-01-27T01:52:07;93885.94;;;0.66;99.74
8543;BME280;4309;42.658;23.380;2023-01-27T01:52:39;93886.56;;;0.68;99.01
8543;BME280;4309;42.658;23.380;2023-01-27T01:53:11;93886.56;;;0.68;100.00
8543;BME280;4309;42.658;23.380;2023-01-27T01:53:46;93884.34;;;0.65;100.00
8543;BME280;4309;42.658;23.380;2023-01-27T01:54:21;93874.78;;;0.59;100.00
8543;BME280;4309;42.658;23.380;2023-01-27T01:54:55;93881.78;;;0.65;99.76
8543;BME280;4309;42.658;23.380;2023-01-27T01:55:26;93876.91;;;0.56;99.52
8543;BME280;4309;42.658;23.380;2023-01-27T01:56:01;93870.72;;;0.50;100.00
8543;BME280;4309;42.658;23.380;2023-01-27T01:56:38;93878.09;;;0.53;100.00
8543;BME280;4309;42.658;23.380;2023-01-27T01:57:15;93876.28;;;0.54;100.00
8543;BME280;4309;42.658;23.380;2023-01-27T01:57:49;93877.47;;;0.51;100.00
8543;BME280;4309;42.658;23.380;2023-01-27T01:58:21;93868.16;;;0.50;100.00
8543;BME280;4309;42.658;23.380;2023-01-27T01:58:55;93868.84;;;0.59;100.00
8543;BME280;4309;42.658;23.380;2023-01-27T01:59:31;93867.94;;;0.66;100.00
8543;BME280;4309;42.658;23.380;2023-01-27T02:00:06;93874.41;;;0.77;100.00
8543;BME280;4309;42.658;23.380;2023-01-27T02:00:37;93876.81;;;0.78;100.00
8543;BME280;4309;42.658;23.380;2023-01-27T02:01:10;93870.03;;;0.77;100.00
8543;BME280;4309;42.658;23.380;2023-01-27T02:01:42;93868.72;;;0.81;100.00
8543;BME280;4309;42.658;23.380;2023-01-27T02:02:14;93856.50;;;0.69;99.30
8543;BME280;4309;42.658;23.380;2023-01-27T02:02:48;93864.66;;;0.72;100.00
8543;BME280;4309;42.658;23.380;2023-01-27T02:03:22;93858.47;;;0.67;99.44
8543;BME280;4309;42.658;23.380;2023-01-27T02:03:58;93861.66;;;0.69;100.00
8543;BME280;4309;42.658;23.380;2023-01-27T02:04:35;93855.53;;;0.70;100.00
8543;BME280;4309;42.658;23.380;2023-01-27T02:05:08;93855.97;;;0.73;100.00
8543;BME280;4309;42.658;23.380;2023-01-27T02:05:42;93854.19;;;0.74;100.00
8543;BME280;4309;42.658;23.380;2023-01-27T02:06:15;93850.72;;;0.81;100.00
8543;BME280;4309;42.658;23.380;2023-01-27T02:06:49;93845.31;;;0.76;99.90
8543;BME280;4309;42.658;23.380;2023-01-27T02:07:26;93851.25;;;0.77;100.00
8543;BME280;4309;42.658;23.380;2023-01-27T02:08:05;93854.97;;;0.74;99.75
8543;BME280;4309;42.658;23.380;2023-01-27T02:08:38;93853.38;;;0.73;99.92
8543;BME280;4309;42.658;23.380;2023-01-27T02:09:09;93864.66;;;0.72;100.00
8543;BME280;4309;42.658;23.380;2023-01-27T02:09:41;93850.56;;;0.68;99.90
8543;BME280;4309;42.658;23.380;2023-01-27T02:10:13;93844.78;;;0.66;99.93
8543;BME280;4309;42.658;23.380;2023-01-27T02:10:43;93845.22;;;0.70;100.00
8543;BME280;4309;42.658;23.380;2023-01-27T02:11:16;93841.63;;;0.64;100.00
8543;BME280;4309;42.658;23.380;2023-01-27T02:11:47;93838.50;;;0.69;100.00
8543;BME280;4309;42.658;23.380;2023-01-27T02:12:17;93837.97;;;0.73;100.00
8543;BME280;4309;42.658;23.380;2023-01-27T02:12:49;93837.03;;;0.81;100.00
8543;BME280;4309;42.658;23.380;2023-01-27T02:13:20;93837.41;;;0.78;100.00
8543;BME280;4309;42.658;23.380;2023-01-27T02:13:51;93828.41;;;0.88;100.00
8543;BME280;4309;42.658;23.380;2023-01-27T02:14:23;93827.44;;;0.89;100.00
8543;BME280;4309;42.658;23.380;2023-01-27T02:14:54;93829.03;;;0.90;100.00
8543;BME280;4309;42.658;23.380;2023-01-27T02:15:25;93832.81;;;0.94;100.00
8543;BME280;4309;42.658;23.380;2023-01-27T02:15:57;93827.84;;;0.93;100.00
8543;BME280;4309;42.658;23.380;2023-01-27T02:16:28;93823.25;;;0.88;100.00
8543;BME280;4309;42.658;23.380;2023-01-27T02:16:59;93824.81;;;0.83;99.93
8543;BME280;4309;42.658;23.380;2023-01-27T02:17:31;93826.22;;;0.85;99.85
8543;BME280;4309;42.658;23.380;2023-01-27T02:18:03;93828.97;;;0.84;100.00
8543;BME280;4309;42.658;23.380;2023-01-27T02:18:36;93825.00;;;0.81;100.00
8543;BME280;4309;42.658;23.380;2023-01-27T02:19:14;93822.22;;;0.83;100.00
8543;BME280;4309;42.658;23.380;2023-01-27T02:19:54;93826.22;;;0.85;100.00
8543;BME280;4309;42.658;23.380;2023-01-27T02:20:34;93830.91;;;0.82;100.00
8543;BME280;4309;42.658;23.380;2023-01-27T02:21:08;93828.97;;;0.84;100.00
8543;BME280;4309;42.658;23.380;2023-01-27T02:21:38;93820.44;;;0.83;100.00
8543;BME280;4309;42.658;23.380;2023-01-27T02:22:17;93825.75;;;0.82;100.00
8543;BME280;4309;42.658;23.380;2023-01-27T02:22:58;93822.22;;;0.83;100.00
8543;BME280;4309;42.658;23.380;2023-01-27T02:23:47;93813.53;;;0.84;100.00
8543;BME280;4309;42.658;23.380;2023-01-27T02:24:32;93822.00;;;0.99;100.00
8543;BME280;4309;42.658;23.380;2023-01-27T02:25:13;93824.28;;;1.08;100.00
8543;BME280;4309;42.658;23.380;2023-01-27T02:25:50;93823.09;;;1.11;99.77
8543;BME280;4309;42.658;23.380;2023-01-27T02:26:25;93828.13;;;1.19;99.28
8543;BME280;4309;42.658;23.380;2023-01-27T02:26:58;93825.75;;;1.17;99.07
8543;BME280;4309;42.658;23.380;2023-01-27T02:27:29;93824.88;;;1.10;99.15
8543;BME280;4309;42.658;23.380;2023-01-27T02:28:01;93828.69;;;1.14;99.37
8543;BME280;4309;42.658;23.380;2023-01-27T02:28:32;93831.09;;;1.16;98.65
8543;BME280;4309;42.658;23.380;2023-01-27T02:29:05;93828.75;;;1.21;99.32
8543;BME280;4309;42.658;23.380;2023-01-27T02:29:36;93822.56;;;1.15;98.98
8543;BME280;4309;42.658;23.380;2023-01-27T02:30:08;93821.56;;;1.16;99.48
8543;BME280;4309;42.658;23.380;2023-01-27T02:30:39;93821.63;;;1.23;98.46
8543;BME280;4309;42.658;23.380;2023-01-27T02:31:10;93824.94;;;1.17;98.64
8543;BME280;4309;42.658;23.380;2023-01-27T02:31:42;93824.81;;;1.25;99.06
8543;BME280;4309;42.658;23.380;2023-01-27T02:32:21;93828.00;;;1.27;97.97
8543;BME280;4309;42.658;23.380;2023-01-27T02:32:52;93821.56;;;1.16;97.57
8543;BME280;4309;42.658;23.380;2023-01-27T02:33:24;93824.56;;;1.20;98.51
8543;BME280;4309;42.658;23.380;2023-01-27T02:33:59;93826.50;;;1.11;98.37
8543;BME280;4309;42.658;23.380;2023-01-27T02:34:35;93819.91;;;1.09;97.95
8543;BME280;4309;42.658;23.380;2023-01-27T02:35:10;93812.94;;;1.03;98.47
8543;BME280;4309;42.658;23.380;2023-01-27T02:35:49;93819.06;;;1.02;97.97
8543;BME280;4309;42.658;23.380;2023-01-27T02:36:21;93822.13;;;1.12;97.63
8543;BME280;4309;42.658;23.380;2023-01-27T02:36:56;93819.66;;;1.04;97.70
8543;BME280;4309;42.658;23.380;2023-01-27T02:37:29;93818.16;;;1.09;98.74
8543;BME280;4309;42.658;23.380;2023-01-27T02:38:02;93823.72;;;1.13;97.70
8543;BME280;4309;42.658;23.380;2023-01-27T02:38:36;93818.41;;;1.14;97.96
8543;BME280;4309;42.658;23.380;2023-01-27T02:39:09;93820.59;;;1.17;97.67
8543;BME280;4309;42.658;23.380;2023-01-27T02:39:43;93822.19;;;1.18;98.71
8543;BME280;4309;42.658;23.380;2023-01-27T02:40:15;93817.72;;;1.06;97.55
8543;BME280;4309;42.658;23.380;2023-01-27T02:40:49;93815.75;;;1.08;98.25
8543;BME280;4309;42.658;23.380;2023-01-27T02:41:27;93818.75;;;1.11;97.74
8543;BME280;4309;42.658;23.380;2023-01-27T02:41:59;93821.47;;;1.03;98.58
8543;BME280;4309;42.658;23.380;2023-01-27T02:42:31;93814.81;;;0.94;98.71
8543;BME280;4309;42.658;23.380;2023-01-27T02:43:03;93818.13;;;0.88;98.69
8543;BME280;4309;42.658;23.380;2023-01-27T02:43:34;93818.38;;;0.93;99.05
8543;BME280;4309;42.658;23.380;2023-01-27T02:44:05;93821.50;;;0.89;98.79
8543;BME280;4309;42.658;23.380;2023-01-27T02:44:37;93830.22;;;0.88;98.31
8543;BME280;4309;42.658;23.380;2023-01-27T02:45:09;93827.53;;;0.96;98.24
8543;BME280;4309;42.658;23.380;2023-01-27T02:45:39;93834.63;;;0.94;99.50
8543;BME280;4309;42.658;23.380;2023-01-27T02:46:11;93834.88;;;0.99;98.49
8543;BME280;4309;42.658;23.380;2023-01-27T02:46:42;93824.28;;;1.08;99.16
8543;BME280;4309;42.658;23.380;2023-01-27T02:47:13;93814.09;;;1.00;98.81
8543;BME280;4309;42.658;23.380;2023-01-27T02:47:44;93829.00;;;1.05;98.67
8543;BME280;4309;42.658;23.380;2023-01-27T02:48:15;93830.69;;;0.98;99.34
8543;BME280;4309;42.658;23.380;2023-01-27T02:48:46;93837.09;;;1.02;98.88
8543;BME280;4309;42.658;23.380;2023-01-27T02:49:18;93832.81;;;0.94;98.55
8543;BME280;4309;42.658;23.380;2023-01-27T02:49:48;93838.34;;;0.91;98.59
8543;BME280;4309;42.658;23.380;2023-01-27T02:50:19;93839.31;;;0.90;99.32
8543;BME280;4309;42.658;23.380;2023-01-27T02:50:51;93843.13;;;0.94;99.01
8543;BME280;4309;42.658;23.380;2023-01-27T02:51:22;93842.78;;;0.97;99.81
8543;BME280;4309;42.658;23.380;2023-01-27T02:51:52;93844.38;;;0.98;99.31
8543;BME280;4309;42.658;23.380;2023-01-27T02:52:24;93845.16;;;0.99;98.87
8543;BME280;4309;42.658;23.380;2023-01-27T02:52:55;93846.31;;;0.96;99.95
8543;BME280;4309;42.658;23.380;2023-01-27T02:53:25;93849.06;;;0.95;99.43
8543;BME280;4309;42.658;23.380;2023-01-27T02:53:56;93842.63;;;0.84;99.31
8543;BME280;4309;42.658;23.380;2023-01-27T02:54:29;93839.25;;;0.84;99.50
8543;BME280;4309;42.658;23.380;2023-01-27T02:55:00;93842.63;;;0.84;99.02
8543;BME280;4309;42.658;23.380;2023-01-27T02:55:30;93842.19;;;0.81;99.12
8543;BME280;4309;42.658;23.380;2023-01-27T02:56:04;93837.59;;;0.76;99.90
8543;BME280;4309;42.658;23.380;2023-01-27T02:56:35;93846.47;;;0.74;98.96
8543;BME280;4309;42.658;23.380;2023-01-27T02:57:06;93842.91;;;0.75;100.00
8543;BME280;4309;42.658;23.380;2023-01-27T02:57:38;93838.94;;;0.72;99.82
8543;BME280;4309;42.658;23.380;2023-01-27T02:58:08;93833.91;;;0.85;100.00
8543;BME280;4309;42.658;23.380;2023-01-27T02:58:39;93833.06;;;0.99;99.86
8543;BME280;4309;42.658;23.380;2023-01-27T02:59:11;93828.38;;;1.03;99.71
8543;BME280;4309;42.658;23.380;2023-01-27T02:59:42;93835.88;;;0.83;98.95
8543;BME280;4309;42.658;23.380;2023-01-27T03:00:12;93835.41;;;0.59;99.31
8543;BME280;4309;42.658;23.380;2023-01-27T03:00:43;93823.47;;;0.51;99.87